• Join FlightAware (Why Join?)
  • Login
  • US Flag 
08:13PM EDT


 

Airport Tracker/Info


-or-


 

Live Flight TrackerFlight Track Log ✈ AAL94 ✈ 21-Apr-2013 ✈ KJFK - LEMD / MAD

Flight Track Log - Related Links

Times and Time Zones

All times are in EDT time to prevent confusion due to time zone crossing. See the AAL94 flight status page for this flight to view local times or setup timezone preferences in your user account.

Time Position Orientation Groundspeed Altitude Reporting Facility
EDT Latitude Longitude Course Direction KTS MPH feet Rate Location/Type
07:14PM 40.6190 -73.7820 207° Southwest 164 189 100  Level FlightAware
07:14PM 40.5980 -73.7990 212° Southwest 187 215 1,100 1,800 Climbing FlightAware
07:14PM 40.5890 -73.8030 199° South 203 234 1,300 1,200 Climbing FlightAware
07:15PM 40.5750 -73.8000 171° South 217 250 1,600 1,560 Climbing FlightAware
07:15PM 40.5630 -73.7870 141° Southeast 223 257 2,100 1,980 Climbing FlightAware
07:15PM 40.5460 -73.7500 121° Southeast 251 289 3,100 1,800 Climbing FlightAware
07:16PM 40.5330 -73.7170 117° Southeast 259 298 3,800 1,200 Climbing FlightAware
07:16PM 40.5150 -73.6750 119° Southeast 262 302 4,200 600 Climbing FlightAware
07:17PM 40.5000 -73.6380 118° Southeast 259 298 4,400 180 Climbing FlightAware
07:17PM 40.4820 -73.5960 119° Southeast 260 299 4,400  Level FlightAware
07:18PM 40.4680 -73.5640 120° Southeast 261 300 4,400  Level FlightAware
07:18PM 40.4510 -73.5200 117° Southeast 257 296 4,400 1,080 Level FlightAware
07:19PM 40.4550 -73.4750 83° East 254 292 5,500 2,580 Climbing FlightAware
07:19PM 40.4620 -73.4360 77° East 257 296 6,800 3,000 Climbing FlightAware
07:19PM 40.4659 -73.4163 75° East 265 305 7,300 2,580 Climbing FlightAware ADS-B
07:20PM 40.4736 -73.3696 78° East 273 314 8,600 2,340 Climbing FlightAware ADS-B
07:20PM 40.4726 -73.3432 93° East 280 322 9,100 2,400 Climbing FlightAware ADS-B
07:20PM 40.4675 -73.3145 103° East 286 329 9,900 2,040 Climbing FlightAware ADS-B
07:21PM 40.4531 -73.2630 110° East 314 361 10,700 1,140 Climbing FlightAware ADS-B
07:21PM 40.4360 -73.1960 109° East 354 407 11,200 1,740 Climbing FlightAware
07:22PM 40.4127 -73.1070 109° East 321 369 13,000 2,340 Climbing FlightAware ADS-B
07:23PM 40.3926 -73.0256 108° East 381 438 14,300 1,980 Climbing FlightAware ADS-B
07:23PM 40.3860 -72.9480 96° East 394 453 15,500 2,160 Climbing FlightAware
07:24PM 40.3950 -72.9100 73° East 395 455 16,200 2,280 Climbing FlightAware
07:24PM 40.4154 -72.8416 69° East 405 466 17,200 2,040 Climbing FlightAware ADS-B
07:25PM 40.4294 -72.7641 77° East 406 467 18,300 1,680 Climbing FlightAware ADS-B
07:25PM 40.4453 -72.6893 74° East 430 495 19,000 1,500 Climbing FlightAware ADS-B
07:26PM 40.4651 -72.5989 74° East 444 511 20,000 1,740 Climbing FlightAware ADS-B
07:26PM 40.4884 -72.4931 74° East 453 521 21,200 1,680 Climbing FlightAware ADS-B
07:27PM 40.5060 -72.4120 74° East 460 529 22,100 1,560 Climbing FlightAware
07:27PM 40.5277 -72.3146 74° East 469 540 23,000 1,560 Climbing FlightAware ADS-B
07:28PM 40.5558 -72.1853 74° East 480 552 24,200 1,440 Climbing FlightAware ADS-B
07:29PM 40.5870 -72.0430 74° East 488 562 25,500 1,440 Climbing FlightAware
07:30PM 40.6170 -71.9040 74° East 499 574 26,600 780 Climbing FlightAware
07:30PM 40.6360 -71.8140 74° East 499 574 26,600  Level FlightAware
07:31PM 40.6580 -71.7150 74° East 499 574 26,600  Level FlightAware
07:32PM 40.6790 -71.6160 74° East 499 574 26,600  Level FlightAware
07:33PM 40.7070 -71.4910 74° East 499 574 26,600  Level FlightAware
07:33PM 40.7280 -71.3920 74° East 499 574 26,600 1,980 Level FlightAware
07:35PM 40.9130 -70.9400 61° Northeast 32,800 2,460 Climbing FlightAware
07:36PM 40.9750 -70.8400 51° Northeast 546 628 33,400 1,020 Climbing FlightAware
07:37PM 41.0730 -70.6790 51° Northeast 546 628 34,500 960 Climbing FlightAware
07:38PM 41.1330 -70.5800 51° Northeast 548 631 35,000 300 Climbing FlightAware
07:38PM 41.2100 -70.4550 51° Northeast 546 628 35,000  Level FlightAware
07:39PM 41.2630 -70.3670 51° Northeast 546 628 35,000  Level FlightAware
07:40PM 41.3320 -70.2540 51° Northeast 543 625 35,000  Level FlightAware
07:40PM 41.3990 -70.1430 51° Northeast 544 626 35,000  Level FlightAware
07:41PM 41.4630 -70.0360 51° Northeast 554 638 35,000  Level FlightAware
07:42PM 41.5300 -69.9190 53° Northeast 553 636 35,000  Level FlightAware
07:43PM 41.5980 -69.8000 53° Northeast 554 638 35,000  Level FlightAware
07:44PM 41.6880 -69.6430 52° Northeast 556 640 35,000  Level FlightAware
07:44PM 41.7570 -69.5220 53° Northeast 555 639 35,000  Level FlightAware
07:45PM 41.8160 -69.4190 52° Northeast 555 639 35,000  Level FlightAware
07:46PM 41.8870 -69.2930 53° Northeast 556 640 35,000  Level FlightAware
07:46PM 41.9400 -69.1990 53° Northeast 555 639 35,000  Level FlightAware
07:47PM 42.0130 -69.0710 52° Northeast 550 633 35,000  Level FlightAware
07:48PM 42.1000 -68.9160 53° Northeast 550 633 35,000  Level FlightAware
07:49PM 42.1670 -68.7970 53° Northeast 549 632 35,000  Level FlightAware
07:49PM 42.2170 -68.7050 54° Northeast 549 632 35,000  Level FlightAware
07:50PM 42.2830 -68.5870 53° Northeast 551 634 35,000  Level FlightAware
07:51PM 42.3610 -68.4460 53° Northeast 552 635 35,000  Level FlightAware
07:52PM 42.4420 -68.2970 54° Northeast 551 634 35,000  Level FlightAware
07:52PM 42.5060 -68.1810 53° Northeast 550 633 35,000  Level FlightAware
07:53PM 42.5690 -68.0650 54° Northeast 550 633 35,000  Level FlightAware
07:54PM 42.6310 -67.9500 54° Northeast 550 633 35,000  Level FlightAware
07:54PM 42.6820 -67.8540 54° Northeast 550 633 35,000  Level FlightAware
07:55PM 42.7330 -67.7590 54° Northeast 550 633 35,000  Level FlightAware
07:56PM 42.7970 -67.6400 54° Northeast 550 633 35,000  Level FlightAware
07:57PM 42.8470 -67.5450 54° Northeast 550 633 35,000  Level FlightAware
07:57PM 42.8980 -67.4490 54° Northeast 550 633 35,000  Level FlightAware
07:58PM 43.0200 -67.2250 53° Northeast 553 636 35,000  Level FlightAware
07:59PM 43.0800 -67.1120 54° Northeast 553 636 35,000  Level FlightAware
07:59PM 43.1440 -66.9900 54° Northeast 553 636 35,000  Level FlightAware
08:00PM 43.2170 -66.8410 56° Northeast 555 639 35,000  Level FlightAware
08:01PM 43.2800 -66.6990 59° Northeast 553 636 35,000  Level FlightAware
08:02PM 43.3370 -66.5750 58° Northeast 554 638 35,000  Level FlightAware
08:02PM 43.3890 -66.4610 58° Northeast 554 638 35,000  Level FlightAware
08:03PM 43.4520 -66.3250 57° Northeast 554 638 35,000  Level FlightAware
08:04PM 43.5160 -66.1870 57° Northeast 554 638 35,000  Level FlightAware
08:05PM 43.5720 -66.0650 58° Northeast 555 639 35,000  Level FlightAware
08:05PM 43.6340 -65.9280 58° Northeast 556 640 35,000  Level FlightAware
08:06PM 43.6890 -65.8060 58° Northeast 556 640 35,000  Level FlightAware
08:07PM 43.7440 -65.6830 58° Northeast 556 640 35,000  Level FlightAware
08:07PM 43.8050 -65.5470 58° Northeast 557 641 35,000  Level FlightAware
08:09PM 43.9500 -65.2210 58° Northeast 563 648 35,000  Level FlightAware
08:10PM 44.0450 -65.0050 58° Northeast 564 649 35,000  Level FlightAware
08:12PM 44.1460 -64.7730 59° Northeast 566 651 35,000  Level FlightAware
08:12PM 44.2060 -64.6360 59° Northeast 568 654 35,000  Level FlightAware
08:13PM 44.2600 -64.5110 59° Northeast 569 655 35,000  Level FlightAware
08:14PM 44.3190 -64.3740 59° Northeast 570 656 35,000  Level FlightAware
08:14PM 44.3750 -64.2410 59° Northeast 571 657 35,000  Level FlightAware
08:15PM 44.4280 -64.1160 59° Northeast 571 657 35,000  Level FlightAware
08:16PM 44.4880 -63.9740 59° Northeast 572 658 35,000  Level FlightAware
08:16PM 44.5410 -63.8500 59° Northeast 572 658 35,000  Level FlightAware
08:17PM 44.6050 -63.6980 59° Northeast 574 661 35,000  Level FlightAware
08:18PM 44.6570 -63.5720 60° Northeast 574 661 35,000  Level FlightAware
08:19PM 44.7420 -63.3670 60° Northeast 575 662 35,000  Level FlightAware
08:20PM 44.7960 -63.2340 60° Northeast 576 663 35,000  Level FlightAware
08:20PM 44.8560 -63.0870 60° Northeast 577 664 35,000  Level FlightAware
08:21PM 44.9000 -62.9820 59° Northeast 577 664 35,000  Level FlightAware
08:22PM 44.9560 -62.8430 60° Northeast 577 664 35,000  Level FlightAware
08:23PM 45.0020 -62.7320 60° Northeast 577 664 35,000  Level FlightAware
08:23PM 45.0470 -62.6210 60° Northeast 577 664 35,000  Level FlightAware
08:24PM 45.0920 -62.5100 60° Northeast 577 664 35,000  Level FlightAware
08:25PM 45.1380 -62.3980 60° Northeast 577 664 35,000  Level FlightAware
08:25PM 45.1940 -62.2590 60° Northeast 577 664 35,000  Level FlightAware
08:26PM 45.2400 -62.1470 60° Northeast 577 664 35,000  Level FlightAware
08:27PM 45.2850 -62.0350 60° Northeast 577 664 35,000  Level FlightAware
08:27PM 45.3310 -61.9240 59° Northeast 577 664 35,000  Level FlightAware
08:28PM 45.3760 -61.8120 60° Northeast 577 664 35,000  Level FlightAware
08:29PM 45.4330 -61.6720 60° Northeast 577 664 35,000  Level FlightAware
08:30PM 45.4780 -61.5600 60° Northeast 577 664 35,000  Level FlightAware
08:30PM 45.5230 -61.4480 60° Northeast 577 664 35,000 1,380 Level FlightAware
08:31PM 45.6690 -61.0210 64° Northeast 568 654 37,000 1,380 Climbing FlightAware
08:32PM 45.7190 -60.8880 62° Northeast 568 654 37,000  Level FlightAware
08:32PM 45.7690 -60.7540 62° Northeast 568 654 37,000  Level FlightAware
08:33PM 45.8060 -60.6540 62° Northeast 569 655 37,000  Level FlightAware
08:34PM 45.8600 -60.5100 62° Northeast 568 654 37,000  Level FlightAware
08:34PM 45.9090 -60.3780 62° Northeast 567 652 37,000  Level FlightAware
08:35PM 45.9590 -60.2430 62° Northeast 566 651 37,000  Level FlightAware
08:36PM 46.0150 -60.0890 62° Northeast 565 650 37,000  Level FlightAware
08:36PM 46.0620 -59.9590 62° Northeast 565 650 37,000  Level FlightAware
08:37PM 46.1160 -59.8110 62° Northeast 564 649 37,000  Level FlightAware
08:38PM 46.1600 -59.6900 62° Northeast 563 648 37,000  Level FlightAware
08:38PM 46.2120 -59.5430 63° Northeast 564 649 37,000  Level FlightAware
08:39PM 46.2660 -59.3910 63° Northeast 565 650 37,000  Level FlightAware
08:40PM 46.3140 -59.2570 63° Northeast 565 650 37,000  Level FlightAware
08:41PM 46.3670 -59.1080 63° Northeast 566 651 37,000  Level FlightAware
08:41PM 46.4100 -58.9850 63° Northeast 566 651 37,000  Level FlightAware
08:42PM 46.4620 -58.8380 63° Northeast 567 652 37,000  Level FlightAware
08:44PM 46.6120 -58.4020 63° Northeast 569 655 37,000  Level FlightAware
08:45PM 46.6590 -58.2670 63° Northeast 569 655 37,000  Level FlightAware
08:45PM 46.7020 -58.1400 64° Northeast 568 654 37,000  Level FlightAware
08:46PM 46.7520 -57.9980 63° Northeast 568 654 37,000  Level FlightAware
08:47PM 46.7920 -57.8820 63° Northeast 568 654 37,000  Level FlightAware
08:47PM 46.8330 -57.7650 63° Northeast 568 654 37,000  Level FlightAware
08:48PM 46.8730 -57.6490 63° Northeast 568 654 37,000  Level FlightAware
08:49PM 46.9140 -57.5320 63° Northeast 568 654 37,000  Level FlightAware
08:50PM 46.9970 -57.2430 67° East 570 656 37,000  Level FlightAware
08:50PM 47.0410 -57.1010 66° East 570 656 37,000  Level FlightAware
08:51PM 47.0830 -56.9660 65° Northeast 570 656 37,000  Level FlightAware
08:52PM 47.1330 -56.8080 65° Northeast 569 655 37,000  Level FlightAware
08:52PM 47.1820 -56.6500 65° Northeast 567 652 37,000  Level FlightAware
08:53PM 47.2250 -56.5080 66° East 566 651 37,000  Level FlightAware
08:54PM 47.2670 -56.3720 65° Northeast 565 650 37,000  Level FlightAware
08:55PM 47.3150 -56.2170 65° Northeast 565 650 37,000  Level FlightAware
08:55PM 47.3530 -56.0990 65° Northeast 565 650 37,000  Level FlightAware
08:56PM 47.3900 -55.9800 65° Northeast 565 650 37,000  Level FlightAware
08:57PM 47.4480 -55.7740 67° East 564 649 37,000  Level FlightAware
08:57PM 47.4900 -55.6330 66° East 566 651 37,000  Level FlightAware
08:58PM 47.5370 -55.4740 66° East 566 651 37,000  Level FlightAware
08:59PM 47.5800 -55.3260 67° East 567 652 37,000  Level FlightAware
08:59PM 47.6250 -55.1710 67° East 568 654 37,000  Level FlightAware
09:00PM 47.6570 -55.0640 66° East 568 654 37,000  Level FlightAware
09:01PM 47.6920 -54.9400 67° East 567 652 37,000  Level FlightAware
09:01PM 47.7400 -54.7760 66° East 565 650 37,000  Level FlightAware
09:02PM 47.7800 -54.6340 67° East 565 650 37,000  Level FlightAware
09:03PM 47.8270 -54.4700 67° East 563 648 37,000  Level FlightAware
09:03PM 47.8670 -54.3290 67° East 558 642 37,000  Level FlightAware
09:04PM 47.9100 -54.1750 67° East 551 634 37,000  Level FlightAware
09:05PM 47.9500 -54.0320 67° East 552 635 37,000  Level FlightAware
09:05PM 47.9890 -53.8900 68° East 552 635 37,000  Level FlightAware
09:06PM 48.0320 -53.7340 68° East 556 640 37,000  Level FlightAware
09:07PM 48.0710 -53.5930 67° East 560 644 37,000  Level FlightAware
09:08PM 48.1170 -53.4250 68° East 564 649 37,000  Level FlightAware
09:08PM 48.1550 -53.2810 68° East 570 656 37,000  Level FlightAware
09:09PM 48.1950 -53.1330 68° East 576 663 37,000  Level FlightAware
09:10PM 48.2280 -53.0110 68° East 578 665 37,000  Level FlightAware
09:10PM 48.2740 -52.8370 68° East 579 666 37,000  Level FlightAware
09:11PM 48.3140 -52.6880 68° East 580 667 37,000  Level FlightAware
09:12PM 48.3530 -52.5380 69° East 580 667 37,000  Level FlightAware
09:12PM 48.3900 -52.3970 68° East 577 664 37,000  Level FlightAware
09:13PM 48.4300 -52.2400 69° East 577 664 37,000  Level FlightAware
09:14PM 48.4790 -52.0500 69° East 572 658 37,000  Level FlightAware
09:15PM 48.5310 -51.8480 69° East 568 654 37,000  Level FlightAware
09:16PM 48.5950 -51.5910 69° East 566 651 37,000  Level FlightAware
09:17PM 48.6430 -51.3980 69° East 565 650 37,000  Level FlightAware
09:17PM 48.6730 -51.2710 70° East 565 650 37,000  Level FlightAware
09:18PM 48.7250 -51.0690 69° East 564 649 37,000  Level FlightAware
09:20PM 48.8150 -50.6970 70° East 557 641 37,000  Level FlightAware
09:21PM 48.8550 -50.5300 70° East 553 636 37,000  Level FlightAware
09:21PM 48.8930 -50.3710 70° East 553 636 37,000  Level FlightAware
09:22PM 48.9200 -50.2520 71° East 553 636 37,000  Level FlightAware
09:23PM 48.9570 -50.0920 71° East 552 635 37,000  Level FlightAware
09:23PM 48.9860 -49.9670 70° East 552 635 37,000  Level FlightAware
09:24PM 49.0210 -49.8100 71° East 552 635 37,000  Level FlightAware
09:25PM 49.0490 -49.6850 71° East 552 635 37,000  Level FlightAware
09:26PM 49.0000 -50.0000 69° East 550 633 37,000  Level ETMS Enhanced Traffic Management System
09:26PM 49.0770 -49.5600 71° East 552 635 37,000  Level FlightAware
09:26PM 49.1500 -49.2833 69° East 560 644 37,000  Level Gander Center
09:26PM 49.1060 -49.4340 71° East 552 635 37,000  Level FlightAware
09:27PM 49.1340 -49.3090 71° East 552 635 37,000  Level FlightAware
09:28PM 49.1690 -49.1520 71° East 552 635 37,000  Level FlightAware
09:28PM 49.1970 -49.0270 71° East 552 635 37,000  Level FlightAware
09:29PM 49.2260 -48.9010 71° East 552 635 37,000  Level FlightAware
09:30PM 49.2540 -48.7750 71° East 552 635 37,000  Level FlightAware
09:30PM 49.2820 -48.6490 71° East 552 635 37,000  Level FlightAware
09:31PM 49.3180 -48.4920 69° East 552 635 37,000  Level FlightAware
09:32PM 49.3460 -48.3660 71° East 552 635 37,000  Level FlightAware
09:32PM 49.4667 -47.9167 71° East 550 633 37,000  Level Gander Center
09:33PM 49.5167 -47.7333 67° East 560 644 37,000  Level Gander Center
09:34PM 49.5667 -47.4667 74° East 550 633 37,000  Level Gander Center
09:35PM 49.6167 -47.2667 69° East 550 633 37,000  Level Gander Center
09:37PM 49.6774 -46.9985 71° East  Level FlightAware Approximate
09:44PM 49.9858 -45.5800 71° East  Level FlightAware Approximate
09:45PM 50.0285 -45.3758 72° East  Level FlightAware Approximate
09:46PM 50.0708 -45.1714 72° East  Level FlightAware Approximate
09:47PM 50.1127 -44.9665 72° East  Level FlightAware Approximate
09:48PM 50.1542 -44.7613 72° East  Level FlightAware Approximate
09:49PM 50.1954 -44.5558 73° East  Level FlightAware Approximate
09:50PM 50.2363 -44.3499 73° East  Level FlightAware Approximate
09:51PM 50.2767 -44.1436 73° East  Level FlightAware Approximate
09:52PM 50.3169 -43.9370 73° East  Level FlightAware Approximate
09:53PM 50.3566 -43.7300 73° East  Level FlightAware Approximate
09:54PM 50.3960 -43.5227 73° East  Level FlightAware Approximate
09:55PM 50.4350 -43.3151 73° East  Level FlightAware Approximate
09:56PM 50.4736 -43.1071 74° East  Level FlightAware Approximate
09:57PM 50.5119 -42.8988 74° East  Level FlightAware Approximate
09:58PM 50.5498 -42.6901 74° East  Level FlightAware Approximate
09:59PM 50.5873 -42.4812 74° East  Level FlightAware Approximate
10:00PM 50.6244 -42.2718 74° East  Level FlightAware Approximate
10:01PM 50.6612 -42.0622 74° East  Level FlightAware Approximate
10:02PM 50.6976 -41.8522 75° East  Level FlightAware Approximate
10:03PM 50.7336 -41.6419 75° East  Level FlightAware Approximate
10:04PM 50.7692 -41.4313 75° East  Level FlightAware Approximate
10:05PM 50.8045 -41.2203 75° East  Level FlightAware Approximate
10:06PM 50.8394 -41.0090 75° East  Level FlightAware Approximate
10:07PM 50.8739 -40.7975 75° East  Level FlightAware Approximate
10:08PM 50.9080 -40.5856 76° East  Level FlightAware Approximate
10:09PM 50.9417 -40.3734 76° East  Level FlightAware Approximate
10:10PM 50.9751 -40.1609 76° East  Level FlightAware Approximate
10:10PM 51.0000 -40.0000 86° East 514 592 37,000  Level ETMS Enhanced Traffic Management System
10:10PM 51.0000 -40.0000 86° East 514 592 37,000  Level ETMS Enhanced Traffic Management System
10:11PM 51.0023 -39.9466 86° East  Level FlightAware Approximate
10:12PM 51.0113 -39.7278 86° East  Level FlightAware Approximate
10:13PM 51.0200 -39.5090 86° East  Level FlightAware Approximate
10:14PM 51.0282 -39.2901 86° East  Level FlightAware Approximate
10:15PM 51.0360 -39.0711 87° East  Level FlightAware Approximate
10:16PM 51.0635 -38.1847 88° East 514 592 37,000  Level FlightAware Transoceanic
10:17PM 51.0695 -37.9575 88° East 514 592 37,000  Level FlightAware Transoceanic
10:18PM 51.0750 -37.7302 88° East 514 592 37,000  Level FlightAware Transoceanic
10:19PM 51.0801 -37.5029 88° East 514 592 37,000  Level FlightAware Transoceanic
10:20PM 51.0847 -37.2755 88° East 514 592 37,000  Level FlightAware Transoceanic
10:21PM 51.0889 -37.0481 88° East 514 592 37,000  Level FlightAware Transoceanic
10:22PM 51.0927 -36.8206 89° East 514 592 37,000  Level FlightAware Transoceanic
10:23PM 51.0960 -36.5931 89° East 514 592 37,000  Level FlightAware Transoceanic
10:24PM 51.0988 -36.3656 89° East 514 592 37,000  Level FlightAware Transoceanic
10:25PM 51.1013 -36.1380 89° East 514 592 37,000  Level FlightAware Transoceanic
10:26PM 51.1033 -35.9104 89° East 514 592 37,000  Level FlightAware Transoceanic
10:27PM 51.1048 -35.6828 89° East 514 592 37,000  Level FlightAware Transoceanic
10:28PM 51.1059 -35.4552 90° East 514 592 37,000  Level FlightAware Transoceanic
10:29PM 51.1066 -35.2276 90° East 514 592 37,000  Level FlightAware Transoceanic
10:30PM 51.1068 -35.0000 90° East 514 592 37,000  Level FlightAware Transoceanic
10:31PM 51.1066 -34.7724 90° East 514 592 37,000  Level FlightAware Transoceanic
10:32PM 51.1059 -34.5448 90° East 514 592 37,000  Level FlightAware Transoceanic
10:33PM 51.1048 -34.3172 91° East 514 592 37,000  Level FlightAware Transoceanic
10:34PM 51.1033 -34.0896 91° East 514 592 37,000  Level FlightAware Transoceanic
10:35PM 51.1013 -33.8620 91° East 514 592 37,000  Level FlightAware Transoceanic
10:36PM 51.0988 -33.6344 91° East 514 592 37,000  Level FlightAware Transoceanic
10:37PM 51.0960 -33.4069 91° East 514 592 37,000  Level FlightAware Transoceanic
10:38PM 51.0927 -33.1794 91° East 514 592 37,000  Level FlightAware Transoceanic
10:39PM 51.0889 -32.9519 92° East 514 592 37,000  Level FlightAware Transoceanic
10:40PM 51.0847 -32.7245 92° East 514 592 37,000  Level FlightAware Transoceanic
10:41PM 51.0801 -32.4971 92° East 514 592 37,000  Level FlightAware Transoceanic
10:42PM 51.0750 -32.2698 92° East 514 592 37,000  Level FlightAware Transoceanic
10:43PM 51.0695 -32.0425 92° East 514 592 37,000  Level FlightAware Transoceanic
10:44PM 51.0635 -31.8153 92° East 514 592 37,000  Level FlightAware Transoceanic
10:45PM 51.0571 -31.5881 93° East 514 592 37,000  Level FlightAware Transoceanic
10:46PM 51.0503 -31.3610 93° East 514 592 37,000  Level FlightAware Transoceanic
10:47PM 51.0430 -31.1340 93° East 514 592 37,000  Level FlightAware Transoceanic
10:48PM 51.0353 -30.9070 93° East 514 592 37,000  Level FlightAware Transoceanic
10:49PM 51.0271 -30.6801 93° East 514 592 37,000  Level FlightAware Transoceanic
10:50PM 51.0185 -30.4533 94° East 514 592 37,000  Level FlightAware Transoceanic
10:51PM 51.0095 -30.2266 94° East 514 592 37,000 240 Level FlightAware Transoceanic
10:52PM 51.0003 -30.0079 94° East  Level FlightAware Approximate
10:53PM 50.9907 -29.7892 94° East  Level FlightAware Approximate
10:54PM 50.9702 -29.8023 103° East  Level FlightAware Approximate
10:54PM 51.0000 -30.0000 103° East 494 568 38,000  Level ETMS Enhanced Traffic Management System
10:55PM 50.9376 -29.5895 104° East  Level FlightAware Approximate
10:56PM 50.9047 -29.3770 104° East  Level FlightAware Approximate
10:57PM 50.8714 -29.1648 104° East  Level FlightAware Approximate
10:58PM 50.8377 -28.9529 104° East  Level FlightAware Approximate
10:59PM 50.8036 -28.7413 104° East  Level FlightAware Approximate
11:00PM 50.7332 -28.3123 105° East 494 568 38,000  Level FlightAware Transoceanic
11:01PM 50.6981 -28.1027 105° East 494 568 38,000  Level FlightAware Transoceanic
11:02PM 50.6627 -27.8934 105° East 494 568 38,000  Level FlightAware Transoceanic
11:03PM 50.6269 -27.6844 105° East 494 568 38,000  Level FlightAware Transoceanic
11:04PM 50.5907 -27.4758 105° East 494 568 38,000  Level FlightAware Transoceanic
11:05PM 50.5542 -27.2675 106° East 494 568 38,000  Level FlightAware Transoceanic
11:06PM 50.5173 -27.0595 106° East 494 568 38,000  Level FlightAware Transoceanic
11:07PM 50.4800 -26.8518 106° East 494 568 38,000  Level FlightAware Transoceanic
11:08PM 50.4423 -26.6445 106° East 494 568 38,000  Level FlightAware Transoceanic
11:09PM 50.4043 -26.4375 106° East 494 568 38,000  Level FlightAware Transoceanic
11:10PM 50.3659 -26.2308 106° East 494 568 38,000  Level FlightAware Transoceanic
11:11PM 50.3271 -26.0245 106° East 494 568 38,000  Level FlightAware Transoceanic
11:12PM 50.2880 -25.8185 107° East 494 568 38,000  Level FlightAware Transoceanic
11:13PM 50.2485 -25.6128 107° East 494 568 38,000  Level FlightAware Transoceanic
11:14PM 50.2087 -25.4075 107° East 494 568 38,000  Level FlightAware Transoceanic
11:15PM 50.1685 -25.2025 107° East 494 568 38,000  Level FlightAware Transoceanic
11:16PM 50.1279 -24.9979 107° East 494 568 38,000  Level FlightAware Transoceanic
11:17PM 50.0870 -24.7936 107° East 494 568 38,000  Level FlightAware Transoceanic
11:18PM 50.0457 -24.5897 108° East 494 568 38,000  Level FlightAware Transoceanic
11:19PM 50.0040 -24.3861 108° East 494 568 38,000  Level FlightAware Transoceanic
11:20PM 49.9620 -24.1829 108° East 494 568 38,000  Level FlightAware Transoceanic
11:21PM 49.9197 -23.9800 108° East 494 568 38,000  Level FlightAware Transoceanic
11:22PM 49.8770 -23.7775 108° East 494 568 38,000  Level FlightAware Transoceanic
11:23PM 49.8339 -23.5754 108° East 494 568 38,000  Level FlightAware Transoceanic
11:24PM 49.7905 -23.3736 109° East 494 568 38,000  Level FlightAware Transoceanic
11:25PM 49.7467 -23.1722 109° East 494 568 38,000  Level FlightAware Transoceanic
11:26PM 49.7026 -22.9711 109° East 494 568 38,000  Level FlightAware Transoceanic
11:27PM 49.6582 -22.7704 109° East 494 568 38,000  Level FlightAware Transoceanic
11:28PM 49.6134 -22.5701 109° East 494 568 38,000  Level FlightAware Transoceanic
11:29PM 49.5682 -22.3701 109° East 494 568 38,000  Level FlightAware Transoceanic
11:30PM 49.5228 -22.1705 109° East 494 568 38,000  Level FlightAware Transoceanic
11:31PM 49.4769 -21.9713 110° East 494 568 38,000  Level FlightAware Transoceanic
11:32PM 49.4307 -21.7725 110° East 494 568 38,000  Level FlightAware Transoceanic
11:33PM 49.3842 -21.5740 110° East 494 568 38,000  Level FlightAware Transoceanic
11:34PM 49.3374 -21.3759 110° East 494 568 38,000  Level FlightAware Transoceanic
11:35PM 49.2902 -21.1782 110° East 494 568 38,000  Level FlightAware Transoceanic
11:36PM 49.2426 -20.9809 110° East 494 568 38,000  Level FlightAware Transoceanic
11:37PM 49.1948 -20.7840 110° East 494 568 38,000  Level FlightAware Transoceanic
11:38PM 49.1466 -20.5874 111° Southeast 494 568 38,000  Level FlightAware Transoceanic
11:39PM 49.0981 -20.3912 111° Southeast 494 568 38,000  Level FlightAware Transoceanic
11:40PM 49.0492 -20.1954 111° Southeast 494 568 38,000  Level FlightAware Transoceanic
11:41PM 48.9997 -19.9990 111° Southeast  Level FlightAware Approximate
11:42PM 48.9993 -19.9982 119° Southeast  Level FlightAware Approximate
11:43PM 48.9325 -19.8144 119° Southeast  Level FlightAware Approximate
11:44PM 48.8653 -19.6311 119° Southeast  Level FlightAware Approximate
11:45PM 48.7978 -19.4484 119° Southeast  Level FlightAware Approximate
11:46PM 48.7301 -19.2661 119° Southeast  Level FlightAware Approximate
11:47PM 48.6620 -19.0843 119° Southeast  Level FlightAware Approximate
11:48PM 48.5937 -18.9030 120° Southeast  Level FlightAware Approximate
11:49PM 48.5251 -18.7221 120° Southeast  Level FlightAware Approximate
11:50PM 48.4564 -18.5416 120° Southeast  Level FlightAware Approximate
11:51PM 48.3875 -18.3615 120° Southeast  Level FlightAware Approximate
11:52PM 48.3183 -18.1820 120° Southeast  Level FlightAware Approximate
11:53PM 48.2489 -18.0029 120° Southeast  Level FlightAware Approximate
11:54PM 48.1791 -17.8243 120° Southeast  Level FlightAware Approximate
11:55PM 48.1086 -17.6466 121° Southeast  Level FlightAware Approximate
11:56PM 48.0375 -17.4697 121° Southeast  Level FlightAware Approximate
11:57PM 47.9661 -17.2933 121° Southeast  Level FlightAware Approximate
11:58PM 47.8945 -17.1174 121° Southeast  Level FlightAware Approximate
11:59PM 47.8225 -16.9420 121° Southeast  Level FlightAware Approximate
12:00AM 47.7503 -16.7670 121° Southeast  Level FlightAware Approximate
12:01AM 47.6779 -16.5926 122° Southeast  Level FlightAware Approximate
12:02AM 47.6051 -16.4186 122° Southeast  Level FlightAware Approximate
12:03AM 47.5325 -16.2448 122° Southeast  Level FlightAware Approximate
12:04AM 47.4597 -16.0713 122° Southeast  Level FlightAware Approximate
12:05AM 47.3867 -15.8983 122° Southeast  Level FlightAware Approximate
12:06AM 47.3134 -15.7259 122° Southeast  Level FlightAware Approximate
12:07AM 47.2399 -15.5538 122° Southeast  Level FlightAware Approximate
12:08AM 47.1661 -15.3823 122° Southeast  Level FlightAware Approximate
12:09AM 47.0921 -15.2112 122° Southeast  Level FlightAware Approximate
12:10AM 47.0178 -15.0406 123° Southeast  Level FlightAware Approximate
12:11AM 46.9340 -14.8803 129° Southeast  Level FlightAware Approximate
12:12AM 46.8471 -14.7236 129° Southeast  Level FlightAware Approximate
12:13AM 46.7599 -14.5673 129° Southeast  Level FlightAware Approximate
12:14AM 46.6726 -14.4116 129° Southeast  Level FlightAware Approximate
12:15AM 46.5850 -14.2564 129° Southeast  Level FlightAware Approximate
12:16AM 46.4973 -14.1016 129° Southeast  Level FlightAware Approximate
12:17AM 46.4093 -13.9474 130° Southeast  Level FlightAware Approximate
12:18AM 46.3211 -13.7937 130° Southeast  Level FlightAware Approximate
12:19AM 46.2328 -13.6404 130° Southeast  Level FlightAware Approximate
12:20AM 46.1442 -13.4877 130° Southeast  Level FlightAware Approximate
12:21AM 46.0554 -13.3355 130° Southeast  Level FlightAware Approximate
12:22AM 45.9664 -13.1837 130° Southeast  Level FlightAware Approximate
12:23AM 45.8772 -13.0324 130° Southeast  Level FlightAware Approximate
12:24AM 45.7878 -12.8816 130° Southeast  Level FlightAware Approximate
12:25AM 45.6983 -12.7313 130° Southeast  Level FlightAware Approximate
12:26AM 45.6085 -12.5815 131° Southeast  Level FlightAware Approximate
12:26AM 45.8050 -12.6050 131° Southeast 482 555 38,000  Level FlightAware
12:27AM 45.5185 -12.4321 131° Southeast  Level FlightAware Approximate
12:27AM 45.7330 -12.4640 126° Southeast 483 556 38,000  Level FlightAware
12:28AM 45.6670 -12.3340 126° Southeast 483 556 38,000  Level FlightAware
12:28AM 45.6150 -12.2330 126° Southeast 483 556 38,000  Level FlightAware
12:29AM 45.5530 -12.1110 126° Southeast 483 556 38,000  Level FlightAware
12:30AM 45.4650 -11.9410 126° Southeast 484 557 38,000  Level FlightAware
12:31AM 45.4140 -11.8430 127° Southeast 483 556 38,000  Level FlightAware
12:32AM 45.3540 -11.7280 127° Southeast 484 557 38,000  Level FlightAware
12:32AM 45.2980 -11.6200 126° Southeast 483 556 38,000  Level FlightAware
12:33AM 45.2300 -11.4910 127° Southeast 483 556 38,000  Level FlightAware
12:34AM 45.1740 -11.3850 127° Southeast 483 556 38,000  Level FlightAware
12:35AM 45.1120 -11.2690 127° Southeast 482 555 38,000  Level FlightAware
12:35AM 45.0710 -11.1910 127° Southeast 481 554 38,000  Level FlightAware
12:36AM 44.9990 -11.0580 127° Southeast 483 556 38,000  Level FlightAware
12:37AM 44.9370 -10.9650 133° Southeast 488 562 38,000  Level FlightAware
12:37AM 44.8790 -10.8890 137° Southeast 489 563 38,000  Level FlightAware
12:38AM 44.7910 -10.7770 138° Southeast 489 563 38,000  Level FlightAware
12:39AM 44.7300 -10.6970 137° Southeast 488 562 38,000  Level FlightAware
12:40AM 44.6550 -10.6020 138° Southeast 488 562 38,000  Level FlightAware
12:40AM 44.5860 -10.5120 137° Southeast 487 560 38,000  Level FlightAware
12:42AM 44.4050 -10.2820 138° Southeast 485 558 38,000  Level FlightAware
12:43AM 44.3310 -10.1880 138° Southeast 485 558 38,000  Level FlightAware
12:44AM 44.1710 -9.9870 126° Southeast 486 559 38,000  Level FlightAware
12:45AM 44.1960 -9.9281 126° Southeast  Level Estimated
12:45AM 44.0960 -9.8930 138° Southeast 486 559 38,000  Level FlightAware
12:46AM 44.0260 -9.8050 138° Southeast 486 559 38,000  Level FlightAware
12:47AM 43.9580 -9.7210 138° Southeast 487 560 38,000  Level FlightAware
12:47AM 43.8900 -9.6370 138° Southeast 487 560 38,000  Level FlightAware
12:48AM 43.8190 -9.5490 138° Southeast 487 560 38,000  Level FlightAware
12:49AM 43.7520 -9.4660 138° Southeast 487 560 38,000  Level FlightAware
12:50AM 43.6370 -9.3260 139° Southeast 486 559 38,000  Level FlightAware
12:51AM 43.5580 -9.2290 138° Southeast 486 559 38,000  Level FlightAware
12:52AM 43.3950 -9.0310 139° Southeast 486 559 38,000  Level FlightAware
12:53AM 43.3260 -8.9490 139° Southeast 486 559 38,000  Level FlightAware
12:54AM 43.2520 -8.8590 138° Southeast 486 559 38,000  Level FlightAware
12:54AM 43.1910 -8.7870 139° Southeast 486 559 38,000  Level FlightAware
12:55AM 43.1110 -8.6900 138° Southeast 486 559 38,000  Level FlightAware
12:56AM 43.0380 -8.6040 139° Southeast 488 562 38,000  Level FlightAware
12:56AM 42.9700 -8.5220 139° Southeast 487 560 38,000  Level FlightAware
12:57AM 42.8970 -8.4180 134° Southeast 469 540 38,000  Level FlightAware
12:58AM 42.8600 -8.3450 125° Southeast 465 535 38,000  Level FlightAware
12:58AM 42.8070 -8.2330 123° Southeast 465 535 38,000  Level FlightAware
12:59AM 42.7520 -8.1180 123° Southeast 465 535 38,000  Level FlightAware
01:00AM 42.7040 -8.0180 123° Southeast 466 536 38,000  Level FlightAware
01:01AM 42.6520 -7.9120 124° Southeast 467 537 38,000  Level FlightAware
01:01AM 42.6030 -7.8120 124° Southeast 467 537 38,000  Level FlightAware
01:02AM 42.5550 -7.7140 124° Southeast 467 537 38,000  Level FlightAware
01:03AM 42.4990 -7.5990 123° Southeast 468 539 38,000  Level FlightAware
01:03AM 42.4630 -7.5260 124° Southeast 468 539 38,000  Level FlightAware
01:04AM 42.4020 -7.4020 124° Southeast 470 541 38,000  Level FlightAware
01:05AM 42.3640 -7.3260 124° Southeast 471 542 38,000  Level FlightAware
01:06AM 42.2980 -7.1930 124° Southeast 470 541 38,000  Level FlightAware
01:06AM 42.2620 -7.1200 124° Southeast 469 540 38,000  Level FlightAware
01:07AM 42.2020 -7.0010 124° Southeast 470 541 38,000  Level FlightAware
01:08AM 42.1530 -6.9040 124° Southeast 470 541 38,000  Level FlightAware
01:08AM 42.1000 -6.7990 124° Southeast 468 539 38,000  Level FlightAware
01:09AM 42.0480 -6.6960 124° Southeast 466 536 38,000  Level FlightAware
01:10AM 41.9990 -6.5980 124° Southeast 465 535 38,000  Level FlightAware
01:10AM 41.9460 -6.4950 125° Southeast 464 534 38,000  Level FlightAware
01:11AM 41.8980 -6.4000 124° Southeast 463 533 38,000 -1,260 Level FlightAware
01:14AM 41.7119 -6.0106 125° Southeast  Level FlightAware Approximate
01:15AM 41.6324 -5.8596 125° Southeast  Level FlightAware Approximate
01:16AM 41.5584 -5.7043 118° Southeast  Level FlightAware Approximate
01:17AM 41.4779 -5.5556 124° Southeast  Level FlightAware Approximate
01:18AM 41.4014 -5.4024 124° Southeast  Level FlightAware Approximate
01:19AM 41.3258 -5.2487 122° Southeast  Level FlightAware Approximate
01:20AM 41.2523 -5.0934 122° Southeast  Level FlightAware Approximate
01:21AM 41.1782 -4.9393 123° Southeast  Level FlightAware Approximate
01:22AM 41.1024 -4.7870 123° Southeast  Level FlightAware Approximate
01:23AM 41.0264 -4.6349 123° Southeast  Level FlightAware Approximate
01:24AM 40.9502 -4.4832 124° Southeast  Level FlightAware Approximate
01:25AM 40.8716 -4.3339 126° Southeast  Level FlightAware Approximate
01:26AM 40.7926 -4.1851 123° Southeast  Level FlightAware Approximate
01:27AM 40.7169 -4.0336 123° Southeast  Level FlightAware Approximate
01:28AM 40.6376 -3.8854 126° Southeast  Level FlightAware Approximate
01:29AM 40.5656 -3.7316 128° Southeast  Level FlightAware Approximate
01:30AM 40.4845 -3.5857 123° Southeast  Level FlightAware Approximate
01:31AM 40.4936 -3.5668 123° Southeast  Level Estimated
01:32AM 40.4936 -3.5668 123° Southeast  Level Estimated
01:33AM 40.4936 -3.5668 123° Southeast  Level Estimated
01:33AM 40.2440 -3.9150 123° Southeast 257 296 9,300  Level FlightAware
01:34AM 40.2400 -3.8780 98° East 253 291 8,600 -1,860 Descending FlightAware
01:34AM 40.2350 -3.8330 98° East 251 289 7,600 -1,920 Descending FlightAware
01:34AM 40.2320 -3.8090 99° East 249 287 7,200 -1,680 Descending FlightAware
01:35AM 40.2270 -3.7730 100° East 243 280 6,500 -1,440 Descending FlightAware
01:35AM 40.2220 -3.7300 99° East 239 275 5,900 -1,140 Descending FlightAware
01:36AM 40.2170 -3.6870 99° East 231 266 5,400 -900 Descending FlightAware
01:36AM 40.2150 -3.6740 101° East 230 265 5,300 -780 Descending FlightAware
01:37AM 40.2110 -3.6330 97° East 232 267 4,900 -540 Descending FlightAware
01:37AM 40.2120 -3.6110 87° East 232 267 4,900  Level FlightAware
01:37AM 40.2170 -3.5780 79° East 234 269 4,900  Level FlightAware
01:37AM 40.2210 -3.5570 76° East 232 267 4,900  Level FlightAware
01:38AM 40.2270 -3.5150 79° East 234 269 4,900  Level FlightAware
01:38AM 40.2330 -3.4810 77° East 233 268 4,900  Level FlightAware
01:39AM 40.2390 -3.4410 79° East 235 270 4,900  Level FlightAware
01:39AM 40.2470 -3.4000 76° East 229 264 4,900  Level FlightAware
01:39AM 40.2510 -3.3920 57° Northeast 226 260 4,900  Level FlightAware
01:40AM 40.2700 -3.3840 18° North 218 251 4,900  Level FlightAware
01:40AM 40.2820 -3.3930 330° Northwest 207 238 4,900  Level FlightAware
01:40AM 40.2890 -3.4110 297° West 196 226 4,900  Level FlightAware
01:41AM 40.3030 -3.4310 313° West 191 220 4,900  Level FlightAware
01:41AM 40.3230 -3.4520 321° Northwest 193 222 4,900 -240 Level FlightAware
01:42AM 40.3410 -3.4700 323° Northwest 192 221 4,700 -780 Descending FlightAware
01:42AM 40.3510 -3.4810 320° Northwest 181 208 4,400 -960 Descending FlightAware
01:42AM 40.3700 -3.5000 323° Northwest 164 189 4,000 -900 Descending FlightAware
01:43AM 40.3870 -3.5180 321° Northwest 143 165 3,500 -900 Descending FlightAware
01:43AM 40.4010 -3.5320 323° Northwest 142 163 3,200 -780 Descending FlightAware
01:44AM 40.4080 -3.5380 327° Northwest 142 163 3,000 -780 Descending FlightAware
01:44AM 40.4210 -3.5520 321° Northwest 142 163 2,700 -780 Descending FlightAware
01:44AM 40.4370 -3.5680 323° Northwest 137 158 2,300 -840 Descending FlightAware
01:45AM 40.4520 -3.5830 323° Northwest 135 155 1,900 -840 Descending FlightAware